Hovedside
METAR-TAF:

METAR-TAF

Lufthavner :

Shanghai Pudong internasjonale lufthavn

Shanghai-Pudong, Kina

breddegrad: 31-07N, lengdegrad: 121-46E, høyde over havet: 4 m

Gjeldene værobservasjon

Denne rapporten ble laget for 44 minutter siden, klokken 03:30 UTC
Vind 8 kt fra Øst, skiftende mellom Nord-nordøst og Sørøst
Temperatur 23°C
Luftfuktighet 57%
Trykk 1021 hPa
Sikt 10 km eller mer
Spredte skyer i en høyde av 2600 ft

METAR: ZSPD 240330Z 10004MPS 030V130 9999 SCT026 23/14 Q1021 NOSIG

Tid: 12:14 (04:14 UTC)

Varsel

Denne rapporten ble laget for 7 timer og 8 minutter siden, klokken 21:06 UTC
Varsel gyldig fra 24. klokken 00 UTC til 24. klokken 24 UTC
Vind 8 kt fra Øst-nordøst
Sikt: 5000 m
Spredte skyer i en høyde av 2000 ft
dis

TAF: ZSPD 232106Z 2400/2424 07004MPS 5000 HZ SCT020 TX23/2406Z TN15/2421Z

Værobservasjoner og værvarsel for over 4000 flyplasser (METAR- og TAF-rapporter).

Tilgjengelige stasjoner er representert av de røde og gule prikkene på kartet.

Hold musepekeren over prikken for å se navnet på stasjonen.

Klikk så for å se værobservasjoner og -varsler.

For å forandre kartet kan du klikke på den grønne knappen med svart kryss for å zoome inn, på den grønne knappen med strek for å zoome ut, eller på de grønne pilene for å se tilstøtende kart.


METAR-TAF: